Lusby, MD

11:02 PM EST on March 05, 2015 (GMT -0500)
APRSWXNET Lusby MD US | Change Station
CLOSE
Current Station
Personal Weather Station
Location: Lusby, MD
Elevation: 115 ft
Nearby Weather Stations

Elev 115 ft 38.37 °N, 76.41 °W | Updated 31 minutes ago

Overcast
Overcast
23 °F
Feels Like 23 °F
N
0
Wind Variable Wind from NNW
Gusts 6.0 mph

Today
High -- | Low -- °F
--% Chance of Precip.
Yesterday
High -- | Low -- °F
Precip. -- in
6:32 AM 6:02 PM
Full, 100% visible
Pressure 30.42 in
Visibility 10.0 miles
Clouds Overcast 9500 ft
Windchill 23 °F
Dew Point 22 °F
Humidity 94%
Rainfall in
Snow Depth Not available.
UV 0 out of 12
Pollen .70 out of 12
Air Quality Not available.
Flu Activity Not available.
METAR KNHK 060352Z AUTO 34015KT 10SM OVC095 M04/M08 A3041 RMK AO2 UPE14B23E33 SLP299 P0000 T10441078

More Conditions Fewer Conditions

Pressure 30.42 in
Visibility 10.0 miles
Clouds Overcast 9500 ft
Windchill 23 °F
Dew Point 22 °F
Humidity 94%
Rainfall in
Snow Depth Not available.
UV 0 out of 12
Pollen .70 out of 12
Air Quality Not available.
Flu Activity Not available.
METAR KNHK 060352Z AUTO 34015KT 10SM OVC095 M04/M08 A3041 RMK AO2 UPE14B23E33 SLP299 P0000 T10441078

More Conditions Fewer Conditions

10-Day Weather Forecast

Almanac

Astronomy

Mar. 05, 2015 Rise Set
Actual Time
Civil Twilight
Nautical Twilight
Astronomical Twilight
Moon
Length of Visible Light
Length of Day
Tomorrow will be .
, % of the Moon is Illuminated

Today's Extremes

State Highs State Lows

Community

WunderPhotos

Upload Photos

1,803,176 photos uploaded!

WunderBlogs® & News

Nearby

Air Quality

  Air Quality AQ Index Pollutant
Not available.

Snow Depth

Station Depth Elevation

Earthquake Activity

City Distance Mag. Time & Date
Minimum magnitude displayed is 2.5.

Coastal Water Temperatures

Place Temperature

Nearby Weather Stations